Time,TemperatureF,DewpointF,PressureIn,WindDirection,WindDirectionDegrees,WindSpeedMPH,WindSpeedGustMPH,Humidity,HourlyPrecipIn,Conditions,Clouds,dailyrainin,SoftwareType,DateUTC
2013-03-26 01:00:00,37.0,36.0,-100.00,North,-999,0.0,0.0,96,-99.99,,,-99.99,,2013-03-26 08:00:00,
2013-03-26 01:02:00,37.0,36.0,-100.00,North,-999,0.0,0.0,96,-99.99,,,-99.99,,2013-03-26 08:02:00,
2013-03-26 01:12:00,37.0,36.0,-100.00,North,-999,0.0,0.0,96,-99.99,,,-99.99,,2013-03-26 08:12:00,
2013-03-26 03:02:00,37.0,37.0,-100.00,North,-999,0.0,0.0,100,-99.99,,,-99.99,,2013-03-26 10:02:00,
2013-03-26 03:12:00,37.0,37.0,-100.00,North,-999,0.0,0.0,100,-99.99,,,-99.99,,2013-03-26 10:12:00,
2013-03-26 07:00:00,37.0,36.0,-100.00,North,-999,0.0,0.0,96,-99.99,,,-99.99,,2013-03-26 14:00:00,
2013-03-26 07:02:00,37.0,36.0,-100.00,North,-999,0.0,0.0,96,-99.99,,,-99.99,,2013-03-26 14:02:00,
2013-03-26 07:11:00,37.0,36.0,-100.00,North,-999,0.0,0.0,96,-99.99,,,-99.99,,2013-03-26 14:11:00,
2013-03-26 09:00:00,40.0,40.0,-100.00,North,-999,0.0,0.0,100,-99.99,,,-99.99,,2013-03-26 16:00:00,
2013-03-26 11:02:00,49.0,40.0,-100.00,North,-999,0.0,0.0,70,-99.99,,,-99.99,,2013-03-26 18:02:00,
2013-03-26 11:12:00,49.0,40.0,-100.00,North,-999,0.0,0.0,70,-99.99,,,-99.99,,2013-03-26 18:12:00,
2013-03-26 13:00:00,32.0,32.0,-100.00,NNE,16,1.0,3.0,100,-99.99,,,-99.99,,2013-03-26 20:00:00,
2013-03-26 15:00:00,53.0,37.0,-100.00,East,93,1.0,3.0,54,-99.99,,,-99.99,,2013-03-26 22:00:00,
2013-03-26 16:20:00,55.0,39.0,-100.00,WNW,282,2.0,6.0,54,-99.99,,,-99.99,,2013-03-26 23:20:00,
2013-03-26 17:02:00,55.0,39.0,-100.00,WNW,282,2.0,6.0,54,-99.99,,,-99.99,,2013-03-27 00:02:00,
2013-03-26 17:12:00,55.0,39.0,-100.00,WNW,282,2.0,6.0,54,-99.99,,,-99.99,,2013-03-27 00:12:00,
2013-03-26 18:20:00,49.0,42.0,-100.00,WNW,295,1.0,3.0,76,-99.99,,,-99.99,,2013-03-27 01:20:00,
2013-03-26 19:00:00,48.0,44.0,-100.00,WNW,287,0.0,1.0,85,-99.99,,,-99.99,,2013-03-27 02:00:00,
2013-03-26 19:02:00,49.0,42.0,-100.00,WNW,295,1.0,3.0,76,-99.99,,,-99.99,,2013-03-27 02:02:00,
2013-03-26 19:12:00,49.0,42.0,-100.00,WNW,295,1.0,3.0,76,-99.99,,,-99.99,,2013-03-27 02:12:00,
2013-03-26 21:00:00,44.0,43.0,-100.00,North,-999,0.0,0.0,96,-99.99,,,-99.99,,2013-03-27 04:00:00,
2013-03-26 22:20:00,44.0,42.0,-100.00,North,-999,0.0,0.0,92,-99.99,,,-99.99,,2013-03-27 05:20:00,
2013-03-26 23:00:00,43.0,42.0,-100.00,North,-999,0.0,0.0,96,-99.99,,,-99.99,,2013-03-27 06:00:00,
2013-03-26 23:02:00,44.0,42.0,-100.00,North,-999,0.0,0.0,92,-99.99,,,-99.99,,2013-03-27 06:02:00,
2013-03-26 23:12:00,44.0,42.0,-100.00,North,-999,0.0,0.0,92,-99.99,,,-99.99,,2013-03-27 06:12:00,